Evans, CO

9:27 AM MDT on August 23, 2014 (GMT -0600)
Greeley-Weld County | Change Station
CLOSE
Current Station
Airport
Location: Greeley,
Elevation: 4698 ft
Nearby Weather Stations

Elev 4698 ft 40.44 °N, 104.63 °W | Updated 12 minutes ago

Partly Cloudy
Partly Cloudy
66 °F
Feels Like 66 °F
N
0
Wind Variable Wind from North

Today
High -- | Low -- °F
--% Chance of Precip.
Yesterday
High -- | Low -- °F
Precip. -- in
6:17 AM 7:44 PM
Waning Crescent, 3% visible
Pressure 29.95 in
Visibility 10.0 miles
Clouds Few 1500 ft
Dew Point 55 °F
Humidity 68%
Rainfall 0.00 in
Snow Depth Not available.
UV 4 out of 12
Pollen 9.20 out of 12
Ozone Good
PM2.5 Good
Flu Activity Not available.
METAR KGXY 231515Z AUTO 00000KT 10SM FEW015 19/13 A2995 RMK AO1

More Conditions Fewer Conditions

Pressure 29.95 in
Visibility 10.0 miles
Clouds Few 1500 ft
Dew Point 55 °F
Humidity 68%
Rainfall 0.00 in
Snow Depth Not available.
UV 4 out of 12
Pollen 9.20 out of 12
Ozone Good
PM2.5 Good
Flu Activity Not available.
METAR KGXY 231515Z AUTO 00000KT 10SM FEW015 19/13 A2995 RMK AO1

More Conditions Fewer Conditions

10-Day Weather Forecast

Almanac

Astronomy

Aug. 23, 2014 Rise Set
Actual Time 6:17 AM MDT 7:44 PM MDT
Civil Twilight 5:48 AM MDT 8:12 PM MDT
Nautical Twilight 5:14 AM MDT 8:47 PM MDT
Astronomical Twilight 4:38 AM MDT 9:23 PM MDT
Moon 4:35 AM MDT 6:30 PM MDT
Length of Visible Light 14h 24m
Length of Day
13h 26m
Tomorrow will be 2m 28s shorter.
Waning Crescent, 3% of the Moon is Illuminated
Today
Waning Crescent
Aug 25
New
Sep 2
First Quarter
Sep 8
Full
Sep 15
Last Quarter

Today's Extremes

State Highs State Lows

Community

WunderPhotos

Upload Photos

1,746,495 photos uploaded!

WunderBlogs® & News

By Dr. Jeff Masters
Director of Meteorology, Weather Underground
By Kari Strenfel
Meteorologist, Weather Underground
By Christopher C. Burt
Weather Historian, Weather Underground
August 23, 2014
August 23, 2014
August 23, 2014

Nearby

Air Quality

  Air Quality AQ Index Pollutant
Yesterday Good
OZONE
Current Good
OZONE
Current Good
PM2.5
Saturday Good
PM2.5
Saturday Good
OZONE
Wednesday Good
OZONE

Snow Depth

Station Depth Elevation
Copeland Lake 0 in 8600 ft
Wild Basin 1 in 9560 ft
Niwot 1 in 9910 ft
University Camp 0 in 10300 ft
Lake Irene 1 in 10700 ft

Earthquake Activity

City Distance Mag. Time & Date
No recent earthquake activity has been reported nearby.
Minimum magnitude displayed is 2.5.

Coastal Water Temperatures

Place Temperature
No Stations Reporting

Nearby Weather Stations